Yunco — CA5247 — position and weather

sailwx.info

Track history (hours):
 
Tides and Currents Weather Stations Pressure Air Temp Water Temp Dewpoint Dewpoint Depression Visibility Wind Speed Wind Dir Waves Ship Positions

Yunco

Last reported at 2017-Nov-23 11:31 UTC. Time now 2017-Nov-24 16:38 UTC.
Position S 32°46' W 071°31'.

Length 32 m; draft 6 m.

Type: Other ship. MMSI: 725001418.

Date/timePositionNaut miles runAvg speedWind from/ knotsBaromVisibWave heightAir tempDewpointWater temp
2017-Nov-23 11:31S 32°46' W 071°31'0 0.0
2017-Nov-23 11:23S 32°46' W 071°31'0 0.0
2017-Nov-23 11:00S 32°46' W 071°31'0 0.0
2017-Nov-23 10:30S 32°46' W 071°31'0 0.0
2017-Nov-23 10:00S 32°46' W 071°31'0 0.0
2017-Nov-23 09:30S 32°46' W 071°31'0 0.0
2017-Nov-23 08:56S 32°46' W 071°31'0 0.0
2017-Nov-23 08:17S 32°46' W 071°31'0 0.0
2017-Nov-23 04:58S 32°46' W 071°31'1 0.9
2017-Nov-23 03:30S 32°46' W 071°30'1 1.2
2017-Nov-23 02:59S 32°45' W 071°30'1 1.2
2017-Nov-23 02:17S 32°46' W 071°30'2 1.5
2017-Nov-23 01:06S 32°45' W 071°32'1 4.5
2017-Nov-23 00:46S 32°46' W 071°31'0 0.0
2017-Nov-23 00:22S 32°46' W 071°31'0 0.1
2017-Nov-22 23:56S 32°46' W 071°31'0 0.0
2017-Nov-22 23:30S 32°46' W 071°31'2 3.4
2017-Nov-22 23:01S 32°45' W 071°32'4 8.1
2017-Nov-22 22:30S 32°49' W 071°34'4 8.8
2017-Nov-22 22:00S 32°53' W 071°35'4 8.9
2017-Nov-22 21:30S 32°57' W 071°36'5 8.8
2017-Nov-22 21:00S 33°02' W 071°37'1 1.2
2017-Nov-22 20:28S 33°02' W 071°37'0 0.0
2017-Nov-22 20:00S 33°02' W 071°37'0 0.0
2017-Nov-22 19:30S 33°02' W 071°37'  
2017-Nov-19 19:44S 32°46' W 071°31'0 0.1
2017-Nov-19 19:29S 32°46' W 071°31'0 0.0
2017-Nov-19 18:57S 32°46' W 071°31'1 1.3
2017-Nov-19 18:29S 32°46' W 071°31'0 0.0
2017-Nov-19 17:52S 32°46' W 071°31'0 0.0
2017-Nov-19 17:30S 32°46' W 071°31'0 0.0
2017-Nov-19 17:00S 32°46' W 071°31'0 0.0
2017-Nov-19 16:29S 32°46' W 071°31'0 0.0
2017-Nov-19 16:00S 32°46' W 071°31'0 0.0
2017-Nov-19 15:26S 32°46' W 071°31'0 0.0
2017-Nov-19 14:59S 32°46' W 071°31'1 0.7
2017-Nov-19 13:56S 32°46' W 071°31'0 0.1
2017-Nov-19 10:57S 32°45' W 071°32'2 0.1
2017-Nov-18 23:11S 32°46' W 071°30'0 1.0
2017-Nov-18 22:45S 32°46' W 071°30'0 0.3
2017-Nov-18 22:30S 32°46' W 071°30'0 0.0
2017-Nov-18 22:00S 32°46' W 071°30'0 0.0
2017-Nov-18 21:30S 32°46' W 071°30'0 0.0
2017-Nov-18 21:00S 32°46' W 071°30'0 0.0
2017-Nov-18 20:30S 32°46' W 071°30'0 0.0
2017-Nov-18 20:00S 32°46' W 071°30'1 1.7
2017-Nov-18 19:23S 32°45' W 071°30'1 1.2
2017-Nov-18 18:55S 32°45' W 071°30'1 3.1
2017-Nov-18 18:30S 32°46' W 071°31'0 0.0
2017-Nov-18 18:00S 32°46' W 071°31'0 0.0
2017-Nov-18 17:30S 32°46' W 071°31'0 0.0
2017-Nov-18 17:00S 32°46' W 071°31'0 0.0
2017-Nov-18 16:30S 32°46' W 071°31'0 0.0
2017-Nov-18 16:00S 32°46' W 071°31'0 0.0
2017-Nov-18 15:30S 32°46' W 071°31'1 1.7
2017-Nov-18 14:59S 32°46' W 071°30'1 2.2
2017-Nov-18 14:30S 32°45' W 071°29'0 0.5
2017-Nov-18 13:59S 32°45' W 071°30'1 2.2
2017-Nov-18 13:30S 32°45' W 071°31'3 5.1
2017-Nov-18 13:00S 32°46' W 071°34'510.1
2017-Nov-18 12:30S 32°51' W 071°35'5 9.9
2017-Nov-18 12:00S 32°56' W 071°35'5 8.2
2017-Nov-18 11:26S 33°01' W 071°37'2 4.1
2017-Nov-18 10:59S 33°02' W 071°37'1 0.2
2017-Nov-18 08:12S 33°02' W 071°37'1 2.4
2017-Nov-18 07:58S 33°02' W 071°37'1 0.4
2017-Nov-18 06:24S 33°02' W 071°37'0 0.0
2017-Nov-18 05:59S 33°02' W 071°37'0 0.0
2017-Nov-18 05:15S 33°02' W 071°37'0 0.0
2017-Nov-18 05:00S 33°02' W 071°37'0 0.0
2017-Nov-18 04:27S 33°02' W 071°37'0 0.0
2017-Nov-18 03:42S 33°02' W 071°37'0 0.0
2017-Nov-18 02:56S 33°02' W 071°37'0 0.0
2017-Nov-18 02:08S 33°02' W 071°37'0 0.2
2017-Nov-18 01:43S 33°02' W 071°37'0 0.8
2017-Nov-18 01:30S 33°02' W 071°37'0 0.3
2017-Nov-18 00:41S 33°02' W 071°37'0 0.3
2017-Nov-18 00:25S 33°02' W 071°37'0 0.0
2017-Nov-17 23:50S 33°02' W 071°37'0 0.1
2017-Nov-17 23:27S 33°02' W 071°37'0 0.0
2017-Nov-17 22:56S 33°02' W 071°37'0 0.0
2017-Nov-17 22:30S 33°02' W 071°37'0 0.0
2017-Nov-17 21:57S 33°02' W 071°37'0 0.5
2017-Nov-17 21:25S 33°02' W 071°38'0 0.0
2017-Nov-17 21:00S 33°02' W 071°38'0 0.0
2017-Nov-17 20:30S 33°02' W 071°38'0 0.0
2017-Nov-17 20:00S 33°02' W 071°38'0 0.0
2017-Nov-17 19:30S 33°02' W 071°38'0 0.2
2017-Nov-17 18:05S 33°02' W 071°37'0 0.1
2017-Nov-17 18:00S 33°02' W 071°37'0 0.0
2017-Nov-17 16:40S 33°02' W 071°37'0 0.1
2017-Nov-17 16:29S 33°02' W 071°37'0 0.0
2017-Nov-17 15:47S 33°02' W 071°37'0 0.0
2017-Nov-17 13:08S 33°02' W 071°37'0 0.0
2017-Nov-17 12:52S 33°02' W 071°37'0 0.0
2017-Nov-17 12:23S 33°02' W 071°37'0 0.0
2017-Nov-17 07:56S 33°02' W 071°37'0 0.0
2017-Nov-17 07:30S 33°02' W 071°37'0 0.0
2017-Nov-17 04:44S 33°02' W 071°37'0 0.0
2017-Nov-17 04:30S 33°02' W 071°37'0 0.0
2017-Nov-17 03:59S 33°02' W 071°37'0 0.0
2017-Nov-17 03:09S 33°02' W 071°37'0 0.0
2017-Nov-17 02:56S 33°02' W 071°37'0 0.0
2017-Nov-17 02:30S 33°02' W 071°37'0 0.0
2017-Nov-17 00:50S 33°02' W 071°37'0 0.1
2017-Nov-17 00:30S 33°02' W 071°37'0 0.1
2017-Nov-17 00:00S 33°02' W 071°37'1 1.1
2017-Nov-16 23:30S 33°02' W 071°38'1 1.0
2017-Nov-16 22:59S 33°02' W 071°37'0 0.0
2017-Nov-16 22:30S 33°02' W 071°37'0 0.0
2017-Nov-16 21:59S 33°02' W 071°37'0 0.1
2017-Nov-16 21:30S 33°02' W 071°37'0 0.0
2017-Nov-16 21:00S 33°02' W 071°37'0 0.0
2017-Nov-16 20:30S 33°02' W 071°37'0 0.0
2017-Nov-16 19:58S 33°02' W 071°37'2 1.3
2017-Nov-16 18:41S 33°01' W 071°37'1 7.7
2017-Nov-16 18:30S 32°59' W 071°37'4 8.4
2017-Nov-16 18:00S 32°55' W 071°36'4 7.8
2017-Nov-16 17:30S 32°52' W 071°35'3 6.1
2017-Nov-16 16:59S 32°48' W 071°34'3 6.0
2017-Nov-16 16:30S 32°46' W 071°34'2 0.2
2017-Nov-16 03:50S 32°46' W 071°31'0 0.0
2017-Nov-16 01:56S 32°46' W 071°31'0 0.0
2017-Nov-16 01:28S 32°46' W 071°31'0 0.0
2017-Nov-16 01:00S 32°46' W 071°31'0 0.0
2017-Nov-16 00:29S 32°46' W 071°31'0 0.0
2017-Nov-15 23:58S 32°46' W 071°31'0 0.0
2017-Nov-15 23:28S 32°46' W 071°31'0 0.0
2017-Nov-15 23:00S 32°46' W 071°31'0 0.0
2017-Nov-15 22:30S 32°46' W 071°31'0 0.0
2017-Nov-15 21:59S 32°46' W 071°31'0 0.0
2017-Nov-15 21:30S 32°46' W 071°31'0 0.0
2017-Nov-15 19:05S 32°46' W 071°31'0 0.0
2017-Nov-15 18:44S 32°46' W 071°31'0 0.0
2017-Nov-15 16:53S 32°46' W 071°31'0 0.0
2017-Nov-15 16:30S 32°46' W 071°31'0 0.0
2017-Nov-15 16:00S 32°46' W 071°31'0 0.0
2017-Nov-15 15:30S 32°46' W 071°31'0 0.0
2017-Nov-15 12:12S 32°46' W 071°31'0 0.0
2017-Nov-14 23:34S 32°46' W 071°31'0 0.0
2017-Nov-14 23:24S 32°46' W 071°31'0 0.0
2017-Nov-14 22:59S 32°46' W 071°31'0 0.0
2017-Nov-14 22:27S 32°46' W 071°31'0 0.0
2017-Nov-14 21:59S 32°46' W 071°31'0 0.0
2017-Nov-14 21:20S 32°46' W 071°31'0 0.0
2017-Nov-14 21:00S 32°46' W 071°31'0 0.0
2017-Nov-14 19:11S 32°47' W 071°31'0 0.0
2017-Nov-14 18:47S 32°46' W 071°31'0 0.0
2017-Nov-14 18:29S 32°46' W 071°31'0 0.0
2017-Nov-14 18:00S 32°46' W 071°31'0 0.0
2017-Nov-14 17:30S 32°47' W 071°31'0 0.0
2017-Nov-14 16:59S 32°47' W 071°31'0 0.0
2017-Nov-14 15:31S 32°46' W 071°31'0 0.0
2017-Nov-14 14:34S 32°46' W 071°31'0 0.0
2017-Nov-14 14:25S 32°46' W 071°31'0 0.0
2017-Nov-14 14:00S 32°46' W 071°31'0 0.0
2017-Nov-14 13:30S 32°46' W 071°31'0 0.0
2017-Nov-14 12:59S 32°46' W 071°31'0 0.0
2017-Nov-14 12:27S 32°46' W 071°31'0 0.0
2017-Nov-14 11:39S 32°46' W 071°31'0 0.0
2017-Nov-14 11:09S 32°47' W 071°31'0 0.0
2017-Nov-14 10:55S 32°46' W 071°31'0 0.0
2017-Nov-14 10:29S 32°46' W 071°31'0 0.0
2017-Nov-14 10:00S 32°46' W 071°31'  
Track history (hours):
 
Tides and Currents Weather Stations Pressure Air Temp Water Temp Dewpoint Dewpoint Depression Visibility Wind Speed Wind Dir Waves Ship Positions

Yunco

Last reported at 2017-Nov-23 11:31 UTC. Time now 2017-Nov-24 16:38 UTC.
Position S 32°46' W 071°31'.

Length 32 m; draft 6 m.

Type: Other ship. MMSI: 725001418.

Date/timePositionNaut miles runAvg speedWind from/ knotsBaromVisibWave heightAir tempDewpointWater temp
2017-Nov-23 11:31S 32°46' W 071°31'0 0.0
2017-Nov-23 11:23S 32°46' W 071°31'0 0.0
2017-Nov-23 11:00S 32°46' W 071°31'0 0.0
2017-Nov-23 10:30S 32°46' W 071°31'0 0.0
2017-Nov-23 10:00S 32°46' W 071°31'0 0.0
2017-Nov-23 09:30S 32°46' W 071°31'0 0.0
2017-Nov-23 08:56S 32°46' W 071°31'0 0.0
2017-Nov-23 08:17S 32°46' W 071°31'0 0.0
2017-Nov-23 04:58S 32°46' W 071°31'1 0.9
2017-Nov-23 03:30S 32°46' W 071°30'1 1.2
2017-Nov-23 02:59S 32°45' W 071°30'1 1.2
2017-Nov-23 02:17S 32°46' W 071°30'2 1.5
2017-Nov-23 01:06S 32°45' W 071°32'1 4.5
2017-Nov-23 00:46S 32°46' W 071°31'0 0.0
2017-Nov-23 00:22S 32°46' W 071°31'0 0.1
2017-Nov-22 23:56S 32°46' W 071°31'0 0.0
2017-Nov-22 23:30S 32°46' W 071°31'2 3.4
2017-Nov-22 23:01S 32°45' W 071°32'4 8.1
2017-Nov-22 22:30S 32°49' W 071°34'4 8.8
2017-Nov-22 22:00S 32°53' W 071°35'4 8.9
2017-Nov-22 21:30S 32°57' W 071°36'5 8.8
2017-Nov-22 21:00S 33°02' W 071°37'1 1.2
2017-Nov-22 20:28S 33°02' W 071°37'0 0.0
2017-Nov-22 20:00S 33°02' W 071°37'0 0.0
2017-Nov-22 19:30S 33°02' W 071°37'  
2017-Nov-19 19:44S 32°46' W 071°31'0 0.1
2017-Nov-19 19:29S 32°46' W 071°31'0 0.0
2017-Nov-19 18:57S 32°46' W 071°31'1 1.3
2017-Nov-19 18:29S 32°46' W 071°31'0 0.0
2017-Nov-19 17:52S 32°46' W 071°31'0 0.0
2017-Nov-19 17:30S 32°46' W 071°31'0 0.0
2017-Nov-19 17:00S 32°46' W 071°31'0 0.0
2017-Nov-19 16:29S 32°46' W 071°31'0 0.0
2017-Nov-19 16:00S 32°46' W 071°31'0 0.0
2017-Nov-19 15:26S 32°46' W 071°31'0 0.0
2017-Nov-19 14:59S 32°46' W 071°31'1 0.7
2017-Nov-19 13:56S 32°46' W 071°31'0 0.1
2017-Nov-19 10:57S 32°45' W 071°32'2 0.1
2017-Nov-18 23:11S 32°46' W 071°30'0 1.0
2017-Nov-18 22:45S 32°46' W 071°30'0 0.3
2017-Nov-18 22:30S 32°46' W 071°30'0 0.0
2017-Nov-18 22:00S 32°46' W 071°30'0 0.0
2017-Nov-18 21:30S 32°46' W 071°30'0 0.0
2017-Nov-18 21:00S 32°46' W 071°30'0 0.0
2017-Nov-18 20:30S 32°46' W 071°30'0 0.0
2017-Nov-18 20:00S 32°46' W 071°30'1 1.7
2017-Nov-18 19:23S 32°45' W 071°30'1 1.2
2017-Nov-18 18:55S 32°45' W 071°30'1 3.1
2017-Nov-18 18:30S 32°46' W 071°31'0 0.0
2017-Nov-18 18:00S 32°46' W 071°31'0 0.0
2017-Nov-18 17:30S 32°46' W 071°31'0 0.0
2017-Nov-18 17:00S 32°46' W 071°31'0 0.0
2017-Nov-18 16:30S 32°46' W 071°31'0 0.0
2017-Nov-18 16:00S 32°46' W 071°31'0 0.0
2017-Nov-18 15:30S 32°46' W 071°31'1 1.7
2017-Nov-18 14:59S 32°46' W 071°30'1 2.2
2017-Nov-18 14:30S 32°45' W 071°29'0 0.5
2017-Nov-18 13:59S 32°45' W 071°30'1 2.2
2017-Nov-18 13:30S 32°45' W 071°31'3 5.1
2017-Nov-18 13:00S 32°46' W 071°34'510.1
2017-Nov-18 12:30S 32°51' W 071°35'5 9.9
2017-Nov-18 12:00S 32°56' W 071°35'5 8.2
2017-Nov-18 11:26S 33°01' W 071°37'2 4.1
2017-Nov-18 10:59S 33°02' W 071°37'1 0.2
2017-Nov-18 08:12S 33°02' W 071°37'1 2.4
2017-Nov-18 07:58S 33°02' W 071°37'1 0.4
2017-Nov-18 06:24S 33°02' W 071°37'0 0.0
2017-Nov-18 05:59S 33°02' W 071°37'0 0.0
2017-Nov-18 05:15S 33°02' W 071°37'0 0.0
2017-Nov-18 05:00S 33°02' W 071°37'0 0.0
2017-Nov-18 04:27S 33°02' W 071°37'0 0.0
2017-Nov-18 03:42S 33°02' W 071°37'0 0.0
2017-Nov-18 02:56S 33°02' W 071°37'0 0.0
2017-Nov-18 02:08S 33°02' W 071°37'0 0.2
2017-Nov-18 01:43S 33°02' W 071°37'0 0.8
2017-Nov-18 01:30S 33°02' W 071°37'0 0.3
2017-Nov-18 00:41S 33°02' W 071°37'0 0.3
2017-Nov-18 00:25S 33°02' W 071°37'0 0.0
2017-Nov-17 23:50S 33°02' W 071°37'0 0.1
2017-Nov-17 23:27S 33°02' W 071°37'0 0.0
2017-Nov-17 22:56S 33°02' W 071°37'0 0.0
2017-Nov-17 22:30S 33°02' W 071°37'0 0.0
2017-Nov-17 21:57S 33°02' W 071°37'0 0.5
2017-Nov-17 21:25S 33°02' W 071°38'0 0.0
2017-Nov-17 21:00S 33°02' W 071°38'0 0.0
2017-Nov-17 20:30S 33°02' W 071°38'0 0.0
2017-Nov-17 20:00S 33°02' W 071°38'0 0.0
2017-Nov-17 19:30S 33°02' W 071°38'0 0.2
2017-Nov-17 18:05S 33°02' W 071°37'0 0.1
2017-Nov-17 18:00S 33°02' W 071°37'0 0.0
2017-Nov-17 16:40S 33°02' W 071°37'0 0.1
2017-Nov-17 16:29S 33°02' W 071°37'0 0.0
2017-Nov-17 15:47S 33°02' W 071°37'0 0.0
2017-Nov-17 13:08S 33°02' W 071°37'0 0.0
2017-Nov-17 12:52S 33°02' W 071°37'0 0.0
2017-Nov-17 12:23S 33°02' W 071°37'0 0.0
2017-Nov-17 07:56S 33°02' W 071°37'0 0.0
2017-Nov-17 07:30S 33°02' W 071°37'0 0.0
2017-Nov-17 04:44S 33°02' W 071°37'0 0.0
2017-Nov-17 04:30S 33°02' W 071°37'0 0.0
2017-Nov-17 03:59S 33°02' W 071°37'0 0.0
2017-Nov-17 03:09S 33°02' W 071°37'0 0.0
2017-Nov-17 02:56S 33°02' W 071°37'0 0.0
2017-Nov-17 02:30S 33°02' W 071°37'0 0.0
2017-Nov-17 00:50S 33°02' W 071°37'0 0.1
2017-Nov-17 00:30S 33°02' W 071°37'0 0.1
2017-Nov-17 00:00S 33°02' W 071°37'1 1.1
2017-Nov-16 23:30S 33°02' W 071°38'1 1.0
2017-Nov-16 22:59S 33°02' W 071°37'0 0.0
2017-Nov-16 22:30S 33°02' W 071°37'0 0.0
2017-Nov-16 21:59S 33°02' W 071°37'0 0.1
2017-Nov-16 21:30S 33°02' W 071°37'0 0.0
2017-Nov-16 21:00S 33°02' W 071°37'0 0.0
2017-Nov-16 20:30S 33°02' W 071°37'0 0.0
2017-Nov-16 19:58S 33°02' W 071°37'2 1.3
2017-Nov-16 18:41S 33°01' W 071°37'1 7.7
2017-Nov-16 18:30S 32°59' W 071°37'4 8.4
2017-Nov-16 18:00S 32°55' W 071°36'4 7.8
2017-Nov-16 17:30S 32°52' W 071°35'3 6.1
2017-Nov-16 16:59S 32°48' W 071°34'3 6.0
2017-Nov-16 16:30S 32°46' W 071°34'2 0.2
2017-Nov-16 03:50S 32°46' W 071°31'0 0.0
2017-Nov-16 01:56S 32°46' W 071°31'0 0.0
2017-Nov-16 01:28S 32°46' W 071°31'0 0.0
2017-Nov-16 01:00S 32°46' W 071°31'0 0.0
2017-Nov-16 00:29S 32°46' W 071°31'0 0.0
2017-Nov-15 23:58S 32°46' W 071°31'0 0.0
2017-Nov-15 23:28S 32°46' W 071°31'0 0.0
2017-Nov-15 23:00S 32°46' W 071°31'0 0.0
2017-Nov-15 22:30S 32°46' W 071°31'0 0.0
2017-Nov-15 21:59S 32°46' W 071°31'0 0.0
2017-Nov-15 21:30S 32°46' W 071°31'0 0.0
2017-Nov-15 19:05S 32°46' W 071°31'0 0.0
2017-Nov-15 18:44S 32°46' W 071°31'0 0.0
2017-Nov-15 16:53S 32°46' W 071°31'0 0.0
2017-Nov-15 16:30S 32°46' W 071°31'0 0.0
2017-Nov-15 16:00S 32°46' W 071°31'0 0.0
2017-Nov-15 15:30S 32°46' W 071°31'0 0.0
2017-Nov-15 12:12S 32°46' W 071°31'0 0.0
2017-Nov-14 23:34S 32°46' W 071°31'0 0.0
2017-Nov-14 23:24S 32°46' W 071°31'0 0.0
2017-Nov-14 22:59S 32°46' W 071°31'0 0.0
2017-Nov-14 22:27S 32°46' W 071°31'0 0.0
2017-Nov-14 21:59S 32°46' W 071°31'0 0.0
2017-Nov-14 21:20S 32°46' W 071°31'0 0.0
2017-Nov-14 21:00S 32°46' W 071°31'0 0.0
2017-Nov-14 19:11S 32°47' W 071°31'0 0.0
2017-Nov-14 18:47S 32°46' W 071°31'0 0.0
2017-Nov-14 18:29S 32°46' W 071°31'0 0.0
2017-Nov-14 18:00S 32°46' W 071°31'0 0.0
2017-Nov-14 17:30S 32°47' W 071°31'0 0.0
2017-Nov-14 16:59S 32°47' W 071°31'0 0.0
2017-Nov-14 15:31S 32°46' W 071°31'0 0.0
2017-Nov-14 14:34S 32°46' W 071°31'0 0.0
2017-Nov-14 14:25S 32°46' W 071°31'0 0.0
2017-Nov-14 14:00S 32°46' W 071°31'0 0.0
2017-Nov-14 13:30S 32°46' W 071°31'0 0.0
2017-Nov-14 12:59S 32°46' W 071°31'0 0.0
2017-Nov-14 12:27S 32°46' W 071°31'0 0.0
2017-Nov-14 11:39S 32°46' W 071°31'0 0.0
2017-Nov-14 11:09S 32°47' W 071°31'0 0.0
2017-Nov-14 10:55S 32°46' W 071°31'0 0.0
2017-Nov-14 10:29S 32°46' W 071°31'0 0.0
2017-Nov-14 10:00S 32°46' W 071°31'  

Dump ship's entire track history